createdAt,value
2023-03-17T00:02:08.403Z,-1.00
2023-03-17T00:07:16.615Z,-1.00
2023-03-17T00:12:21.911Z,-1.00
2023-03-17T00:17:27.776Z,-1.00
2023-03-17T00:22:33.003Z,-1.00
2023-03-17T00:27:38.867Z,-1.10
2023-03-17T00:32:46.552Z,-1.10
2023-03-17T00:37:54.454Z,-1.20
2023-03-17T00:43:00.853Z,-1.20
2023-03-17T00:48:09.309Z,-1.30
2023-03-17T00:53:16.984Z,-1.30
2023-03-17T00:58:35.697Z,-1.30
2023-03-17T01:03:41.664Z,-1.20
2023-03-17T01:08:47.828Z,-1.30
2023-03-17T01:13:53.961Z,-1.30
2023-03-17T01:18:59.586Z,-1.40
2023-03-17T01:24:05.449Z,-1.50
2023-03-17T01:29:11.457Z,-1.50
2023-03-17T01:34:16.700Z,-1.50
2023-03-17T01:39:21.946Z,-1.50
2023-03-17T01:44:27.616Z,-1.60
2023-03-17T01:49:35.722Z,-1.60
2023-03-17T01:54:53.078Z,-1.60
2023-03-17T02:00:07.111Z,-1.50
2023-03-17T02:05:15.800Z,-1.50
2023-03-17T02:10:24.983Z,-1.60
2023-03-17T02:15:41.396Z,-1.60
2023-03-17T02:20:52.365Z,-1.60
2023-03-17T02:25:57.653Z,-1.60
2023-03-17T02:31:05.073Z,-1.50
2023-03-17T02:36:11.434Z,-1.40
2023-03-17T02:41:17.115Z,-1.40
2023-03-17T02:46:22.911Z,-1.30
2023-03-17T02:51:28.625Z,-1.20
2023-03-17T02:56:33.928Z,-1.10
2023-03-17T03:01:39.965Z,-1.10
2023-03-17T03:06:45.930Z,-1.00
2023-03-17T03:11:52.725Z,-1.10
2023-03-17T03:16:58.931Z,-1.00
2023-03-17T03:22:04.244Z,-1.00
2023-03-17T03:27:09.665Z,-1.00
2023-03-17T03:32:15.255Z,-1.00
2023-03-17T03:37:20.713Z,-1.10
2023-03-17T03:42:26.320Z,-1.10
2023-03-17T03:47:31.546Z,-1.10
2023-03-17T03:52:37.001Z,-1.20
2023-03-17T03:57:42.304Z,-1.10
2023-03-17T04:02:48.682Z,-1.10
2023-03-17T04:07:53.892Z,-1.00
2023-03-17T04:12:59.179Z,-0.90
2023-03-17T04:18:05.729Z,-0.80
2023-03-17T04:23:10.864Z,-0.80
2023-03-17T04:28:16.153Z,-0.70
2023-03-17T04:33:21.685Z,-0.70
2023-03-17T04:38:28.400Z,-0.70
2023-03-17T04:43:34.162Z,-0.70
2023-03-17T04:48:39.436Z,-0.80
2023-03-17T04:53:45.187Z,-0.90
2023-03-17T04:58:50.568Z,-0.90
2023-03-17T05:03:56.434Z,-0.90
2023-03-17T05:09:01.731Z,-0.90
2023-03-17T05:14:06.867Z,-0.80
2023-03-17T05:19:12.086Z,-0.70
2023-03-17T05:24:17.473Z,-0.70
2023-03-17T05:29:23.234Z,-0.60
2023-03-17T05:34:28.484Z,-0.50
2023-03-17T05:39:33.789Z,-0.40
2023-03-17T05:44:39.842Z,-0.40
2023-03-17T05:49:45.387Z,-0.20
2023-03-17T05:54:52.679Z,-0.20
2023-03-17T05:59:59.685Z,-0.10
2023-03-17T06:05:05.524Z,-0.10
2023-03-17T06:10:12.142Z,0.00
2023-03-17T06:15:17.548Z,0.00
2023-03-17T06:20:22.838Z,0.10
2023-03-17T06:25:28.266Z,0.20
2023-03-17T06:30:37.059Z,0.20
2023-03-17T06:35:43.881Z,0.30
2023-03-17T06:40:49.166Z,0.30
2023-03-17T06:45:54.801Z,0.40
2023-03-17T06:50:59.937Z,0.50
2023-03-17T06:56:05.835Z,0.60
2023-03-17T07:01:12.210Z,0.70
2023-03-17T07:06:17.425Z,0.80
2023-03-17T07:11:23.836Z,1.00
2023-03-17T07:16:29.008Z,1.00
2023-03-17T07:21:34.275Z,1.20
2023-03-17T07:26:40.429Z,1.40
2023-03-17T07:31:46.329Z,1.60
2023-03-17T07:36:52.021Z,1.80
2023-03-17T07:41:57.230Z,2.00
2023-03-17T07:47:02.815Z,2.20
2023-03-17T07:52:08.934Z,2.30
2023-03-17T07:57:16.368Z,2.40
2023-03-17T08:02:23.420Z,2.50
2023-03-17T08:07:28.703Z,3.30
2023-03-17T08:12:34.310Z,4.00
2023-03-17T08:17:40.345Z,4.60
2023-03-17T08:22:45.674Z,4.60
2023-03-17T08:27:51.255Z,4.30
2023-03-17T08:32:56.585Z,4.40
2023-03-17T08:38:02.450Z,4.40
2023-03-17T08:43:08.729Z,4.60
2023-03-17T08:48:14.257Z,5.40
2023-03-17T08:53:19.458Z,5.80
2023-03-17T08:58:27.260Z,6.80
2023-03-17T09:03:34.086Z,7.40
2023-03-17T09:08:43.187Z,7.60
2023-03-17T09:13:49.634Z,8.20
2023-03-17T09:18:55.817Z,8.50
2023-03-17T09:24:02.667Z,9.00
2023-03-17T09:29:09.290Z,9.30
2023-03-17T09:34:14.594Z,8.40
2023-03-17T09:39:21.622Z,8.00
2023-03-17T09:45:00.175Z,8.10
2023-03-17T09:50:11.307Z,8.50
2023-03-17T09:55:25.537Z,8.50
2023-03-17T10:00:31.517Z,9.30
2023-03-17T10:05:38.860Z,9.30
2023-03-17T10:10:50.152Z,9.00
2023-03-17T10:16:01.728Z,9.30
2023-03-17T10:21:09.713Z,9.70
2023-03-17T10:26:29.999Z,9.00
2023-03-17T10:31:39.529Z,8.70
2023-03-17T10:36:47.937Z,8.80
2023-03-17T10:42:01.913Z,8.90
2023-03-17T10:47:08.575Z,8.90
2023-03-17T10:52:30.399Z,9.00
2023-03-17T10:57:39.125Z,9.00
2023-03-17T11:02:54.623Z,9.00
2023-03-17T11:08:08.568Z,9.20
2023-03-17T11:13:19.881Z,9.00
2023-03-17T11:18:28.470Z,9.00
2023-03-17T11:23:52.997Z,9.10
2023-03-17T11:29:34.411Z,8.90
2023-03-17T11:34:59.190Z,8.90
2023-03-17T11:40:10.515Z,8.80
2023-03-17T11:45:24.517Z,8.80
2023-03-17T11:50:36.180Z,8.90
2023-03-17T11:55:49.030Z,9.10
2023-03-17T12:00:57.609Z,9.20
2023-03-17T12:06:10.413Z,9.10
2023-03-17T12:11:18.565Z,9.20
2023-03-17T12:16:44.811Z,9.80
2023-03-17T12:22:04.161Z,10.00
2023-03-17T12:27:33.262Z,10.40
2023-03-17T12:32:58.704Z,10.70
2023-03-17T12:38:19.223Z,10.90
2023-03-17T12:43:39.399Z,10.90
2023-03-17T12:48:53.977Z,11.00
2023-03-17T12:54:00.363Z,10.80
2023-03-17T12:59:09.670Z,10.60
2023-03-17T13:04:17.880Z,10.30
2023-03-17T13:09:40.266Z,10.40
2023-03-17T13:14:50.862Z,10.70
2023-03-17T13:20:10.822Z,11.20
2023-03-17T13:25:35.460Z,11.00
2023-03-17T13:30:43.666Z,10.70
2023-03-17T13:35:57.911Z,10.90
2023-03-17T13:41:40.309Z,10.80
2023-03-17T13:46:48.560Z,10.80
2023-03-17T13:52:17.660Z,11.00
2023-03-17T13:57:28.867Z,10.80
2023-03-17T14:02:36.786Z,10.80
2023-03-17T14:07:59.586Z,10.70
2023-03-17T14:13:16.899Z,10.80
2023-03-17T14:18:34.135Z,10.70
2023-03-17T14:23:39.416Z,10.70
2023-03-17T14:28:44.604Z,10.70
2023-03-17T14:33:51.871Z,10.50
2023-03-17T14:38:58.166Z,10.50
2023-03-17T14:44:03.556Z,10.40
2023-03-17T14:49:14.559Z,10.40
2023-03-17T14:54:23.157Z,10.30
2023-03-17T14:59:32.224Z,10.10
2023-03-17T15:04:38.972Z,10.00
2023-03-17T15:09:44.080Z,10.00
2023-03-17T15:14:52.796Z,10.00
2023-03-17T15:20:00.782Z,9.90
2023-03-17T15:25:17.941Z,9.90
2023-03-17T15:30:23.692Z,9.80
2023-03-17T15:35:30.934Z,9.80
2023-03-17T15:40:36.405Z,9.80
2023-03-17T15:45:43.261Z,9.70
2023-03-17T15:51:05.807Z,9.60
2023-03-17T15:56:19.361Z,9.60
2023-03-17T16:01:30.680Z,9.50
2023-03-17T16:06:36.647Z,9.30
2023-03-17T16:11:42.035Z,9.20
2023-03-17T16:16:47.589Z,9.00
2023-03-17T16:21:55.388Z,9.00
2023-03-17T16:27:00.800Z,8.90
2023-03-17T16:32:06.509Z,8.70
2023-03-17T16:37:18.280Z,8.60
2023-03-17T16:42:25.218Z,8.40
2023-03-17T16:47:30.494Z,8.30
2023-03-17T16:52:35.767Z,8.10
2023-03-17T16:57:43.746Z,8.00
2023-03-17T17:02:49.930Z,7.80
2023-03-17T17:07:59.919Z,7.60
2023-03-17T17:13:07.856Z,7.50
2023-03-17T17:18:16.337Z,7.50
2023-03-17T17:23:23.984Z,7.40
2023-03-17T17:28:29.128Z,7.30
2023-03-17T17:33:34.568Z,7.20
2023-03-17T17:38:39.862Z,7.10
2023-03-17T17:43:46.344Z,7.00
2023-03-17T17:48:51.743Z,7.00
2023-03-17T17:53:56.911Z,6.80
2023-03-17T17:59:02.115Z,6.70
2023-03-17T18:04:09.962Z,6.70
2023-03-17T18:09:17.745Z,6.70
2023-03-17T18:14:23.005Z,6.60
2023-03-17T18:19:28.794Z,6.50
2023-03-17T18:24:34.259Z,6.60
2023-03-17T18:29:39.804Z,6.60
2023-03-17T18:34:48.875Z,6.50
2023-03-17T18:40:11.987Z,6.50
2023-03-17T18:45:01.410Z,6.50
2023-03-17T18:50:08.224Z,6.40
2023-03-17T18:55:15.340Z,6.30
2023-03-17T19:00:20.983Z,6.40
2023-03-17T19:05:28.094Z,6.30
2023-03-17T19:10:34.073Z,6.30
2023-03-17T19:15:40.684Z,6.20
2023-03-17T19:20:46.313Z,6.20
2023-03-17T19:25:52.249Z,6.30
2023-03-17T19:30:57.451Z,6.10
2023-03-17T19:36:05.788Z,6.10
2023-03-17T19:41:11.263Z,6.10
2023-03-17T19:46:16.715Z,6.10
2023-03-17T19:51:21.924Z,6.20
2023-03-17T19:56:28.165Z,6.30
2023-03-17T20:01:33.569Z,6.30
2023-03-17T20:06:38.796Z,6.20
2023-03-17T20:11:43.958Z,6.20
2023-03-17T20:16:49.584Z,6.20
2023-03-17T20:21:55.420Z,6.00
2023-03-17T20:27:00.874Z,6.00
2023-03-17T20:32:06.134Z,5.90
2023-03-17T20:37:14.369Z,6.00
2023-03-17T20:42:20.709Z,6.00
2023-03-17T20:47:27.263Z,5.90
2023-03-17T20:52:32.762Z,5.90
2023-03-17T20:57:38.135Z,5.80
2023-03-17T21:02:43.552Z,5.70
2023-03-17T21:07:50.702Z,5.70
2023-03-17T21:12:55.966Z,5.60
2023-03-17T21:18:01.223Z,5.60
2023-03-17T21:23:08.431Z,5.60
2023-03-17T21:28:14.102Z,5.70
2023-03-17T21:33:19.369Z,5.60
2023-03-17T21:38:24.532Z,5.80
2023-03-17T21:43:30.476Z,5.70
2023-03-17T21:48:35.546Z,5.70
2023-03-17T21:53:40.905Z,5.60
2023-03-17T21:58:46.167Z,5.50
2023-03-17T22:03:52.270Z,5.50
2023-03-17T22:08:57.722Z,5.50
2023-03-17T22:14:03.093Z,5.50
2023-03-17T22:19:10.110Z,5.50
2023-03-17T22:24:15.776Z,5.50
2023-03-17T22:29:20.914Z,5.40
2023-03-17T22:34:26.303Z,5.40
2023-03-17T22:39:31.703Z,5.30
2023-03-17T22:44:36.839Z,5.20
2023-03-17T22:49:41.942Z,5.10
2023-03-17T22:54:47.272Z,5.10
2023-03-17T22:59:52.477Z,5.10
2023-03-17T23:04:57.938Z,5.00
2023-03-17T23:10:05.730Z,5.00
2023-03-17T23:15:11.573Z,5.00
2023-03-17T23:20:16.857Z,4.90
2023-03-17T23:25:22.328Z,4.90
2023-03-17T23:30:27.623Z,4.90
2023-03-17T23:35:33.581Z,4.80
2023-03-17T23:40:41.448Z,4.70
2023-03-17T23:45:46.669Z,4.70
2023-03-17T23:50:55.654Z,4.80
2023-03-17T23:56:01.001Z,4.70
